Ana Sayfa
METAR-TAF:

METAR-TAF

Havaalanları :

Kastamonu Havalimanı

Kastamonu, Türkiye

Enlem: 41-19-01N, Boylam: 33-47-46E, yükseklik: 1073 m

METAR: eksik

Saat: 18:51 (15:51 UTC)

Tahmin

Rapor saat 13:40 UTC de 2 saat ve 11 dakika önce yapıldı.
Ayın 15'si saat 15 UTC'den ayın 15'si saat 24 UTC'ye kadar geçerli Tahmin
Rüzgar değişken yönden 2 kt
Görüş mesafesi: 3200 m
1200 ft yükseklikte parçalı bulutlu
2800 ft yükseklikte parçalı çok bulutlu
Pus

TAF: LTAL 151340Z 1515/1524 VRB02KT 3200 BR SCT012 BKN028

4.000'den fazla havaalanı için hava durumu gözlemleri ve tahminleri (METAR ve TAF raporları).

Kullanılabilir istasyonlar harita üzerinde sarı ve kırmızı noktalarla gösterilir.

İstasyonun adını görmek için fareyi noktanın üzerinde gezdirin.

Sonrasında hava gözlem ve tahminlerini görmek için tıklayın.

Haritayı değiştirmek için: yaklaştırmak için siyah artı işaretli yeşil düğmeye ve uzaklaştırmak için de eksi işaretli düğmeye hızla tıklayın; bitişik haritalar için yeşil okları kullanın.


METAR-TAF: